気象予報士の航空気象 SA 黄砂 と 春の嵐 何番目?春○番!!

*All archives   *Admin

スポンサーサイト

上記の広告は1ヶ月以上更新のないブログに表示されています。
新しい記事を書く事で広告が消せます。
--:--  |  スポンサー広告  |  EDIT  |  Top↑

2010.03.22 (Mon)

SA 黄砂 と 春の嵐 何番目?春○番!!

 今日、東京で桜の開花宣言がありました。


昨日は大荒れ、黄砂が舞いたいへんな一日でした。


各地で視程が悪化、METARにも現れています


RJCC 202313Z 19020G32KT 4500 SA FEW010 BKN025 BKN070 06/02 Q0979 RMK 1ST010 5CU025 6AC070 A2891 YELLOW SAND=


SA---毎年、春に見かけます。視程が5km以下で砂、日本では黄砂の影響のときに報じられます。


毎年の風物詩です。


春の嵐は、毎年、被害を受けます。


去年は、フェデックスが成田で着陸失敗炎上したことを思い出します。






ブログランキングに参加しています。
にほんブログ村 環境ブログ 天気・気象学へ
にほんブログ村
応援クリックをおねがします。


以下、アフィリエイトサイトです。




スポンサーサイト
23:28  |  気象・天気  |  TB(0)  |  CM(0)  |  EDIT  |  Top↑

コメントを投稿する


 管理者だけに表示  (非公開コメント投稿可能)

▲PageTop

この記事のトラックバックURL

→http://weathereucalyptus.blog115.fc2.com/tb.php/432-21b54729
この記事にトラックバックする(FC2ブログユーザー)

この記事へのトラックバック

▲PageTop

 | BLOGTOP | 
上記広告は1ヶ月以上更新のないブログに表示されています。新しい記事を書くことで広告を消せます。